Time;durP1;ratioP1;P1;durP2;ratioP2;P2;SDS_P1;SDS_P2;PMS_P1;PMS_P2;Temp;Humidity;BMP_temperature;BMP_pressure;BME280_temperature;BME280_humidity;BME280_pressure;Samples;Min_cycle;Max_cycle;Signal;HPM_P1;HPM_P2
2022/10/29 00:02:00;;;;;;;18.20;4.90;;;19.80;99.70;;;;;;5049133;28;20428;-78
2022/10/29 00:04:25;;;;;;;16.27;4.68;;;19.80;99.70;;;;;;5048950;28;20048;-76
2022/10/29 00:06:51;;;;;;;20.17;4.88;;;19.90;99.60;;;;;;5048873;28;20344;-77
2022/10/29 00:09:17;;;;;;;16.00;4.15;;;19.70;99.60;;;;;;5049168;28;20130;-78
2022/10/29 00:11:42;;;;;;;17.52;4.25;;;19.60;99.80;;;;;;5050839;28;20446;-78
2022/10/29 00:14:08;;;;;;;15.85;4.38;;;19.50;99.90;;;;;;5050074;28;20045;-79
2022/10/29 00:16:37;;;;;;;9.90;3.83;;;19.60;99.90;;;;;;5048857;28;20495;-79
2022/10/29 00:19:03;;;;;;;13.52;4.25;;;19.50;99.90;;;;;;5048805;28;20029;-79
2022/10/29 00:21:29;;;;;;;12.13;4.57;;;19.60;99.90;;;;;;5048806;28;20053;-79
2022/10/29 00:23:56;;;;;;;12.18;4.07;;;19.70;99.80;;;;;;5049939;28;20060;-78
2022/10/29 00:26:23;;;;;;;19.05;4.80;;;19.60;99.90;;;;;;5050480;28;20447;-79
2022/10/29 00:28:53;;;;;;;14.90;4.40;;;19.70;99.80;;;;;;5049783;28;20033;-79
2022/10/29 00:31:24;;;;;;;20.48;5.22;;;19.60;99.90;;;;;;5053410;28;20094;-78
2022/10/29 00:33:52;;;;;;;16.20;4.88;;;19.60;99.80;;;;;;5053707;28;20056;-78
2022/10/29 00:36:21;;;;;;;21.58;5.60;;;19.70;99.70;;;;;;5053676;28;20079;-79
2022/10/29 00:38:47;;;;;;;12.93;4.70;;;19.70;99.80;;;;;;5053693;28;20510;-77
2022/10/29 00:41:18;;;;;;;17.60;5.55;;;19.60;99.90;;;;;;5053940;28;20037;-78
2022/10/29 00:43:49;;;;;;;21.02;5.05;;;19.60;99.90;;;;;;5053573;28;20354;-77
2022/10/29 00:46:30;;;;;;;13.27;4.80;;;19.60;99.90;;;;;;5052524;28;20387;-78
2022/10/29 00:48:57;;;;;;;20.80;5.28;;;19.60;99.90;;;;;;5052452;28;20098;-79
2022/10/29 00:51:24;;;;;;;20.00;4.30;;;19.60;99.90;;;;;;5052420;28;20425;-78
2022/10/29 00:54:02;;;;;;;26.00;5.13;;;19.70;99.90;;;;;;5053570;28;20086;-77
2022/10/29 00:56:30;;;;;;;;;;;19.70;99.90;;;;;;5054333;28;20040;-79
2022/10/29 00:58:56;;;;;;;22.60;4.90;;;19.70;99.80;;;;;;5053338;28;19919;-77
2022/10/29 01:01:22;;;;;;;16.92;5.18;;;19.70;99.80;;;;;;5053269;28;20025;-78
2022/10/29 01:03:48;;;;;;;16.23;5.10;;;19.70;99.90;;;;;;5053177;28;20037;-77
2022/10/29 01:06:14;;;;;;;16.02;5.38;;;19.70;99.90;;;;;;5052044;28;20025;-78
2022/10/29 01:08:40;;;;;;;15.00;4.70;;;19.70;99.90;;;;;;5053545;28;20025;-77
2022/10/29 01:11:17;;;;;;;22.58;5.40;;;19.70;99.90;;;;;;5053209;28;20410;-77
2022/10/29 01:14:11;;;;;;;15.40;5.00;;;19.70;99.90;;;;;;5052808;28;20406;-78
2022/10/29 01:16:50;;;;;;;20.08;5.38;;;19.70;99.90;;;;;;5052979;28;20033;-79
2022/10/29 01:19:34;;;;;;;22.10;5.10;;;19.70;99.90;;;;;;5052979;28;20025;-78
2022/10/29 01:22:05;;;;;;;13.60;4.72;;;19.70;99.90;;;;;;5053061;28;20486;-78
2022/10/29 01:24:33;;;;;;;21.23;5.07;;;19.70;99.90;;;;;;5051708;28;20387;-78
2022/10/29 01:27:23;;;;;;;15.88;4.80;;;19.70;99.90;;;;;;5052841;28;20017;-78
2022/10/29 01:30:00;;;;;;;10.77;4.35;;;19.70;99.90;;;;;;5052928;28;20013;-77
2022/10/29 01:32:32;;;;;;;16.77;5.72;;;19.60;99.90;;;;;;5053117;28;20025;-78
2022/10/29 01:35:03;;;;;;;21.35;5.00;;;19.60;99.90;;;;;;5053681;28;20112;-77
2022/10/29 01:37:47;;;;;;;21.02;4.97;;;19.60;99.90;;;;;;5072693;28;20109;-78
2022/10/29 01:40:23;;;;;;;16.88;5.50;;;19.60;99.90;;;;;;5072517;28;20473;-78
2022/10/29 01:43:13;;;;;;;18.65;5.18;;;19.60;99.90;;;;;;5071348;28;20054;-77
2022/10/29 01:45:42;;;;;;;14.05;5.30;;;19.60;99.90;;;;;;5071943;28;20066;-77
2022/10/29 01:48:12;;;;;;;19.42;5.10;;;19.60;99.90;;;;;;5072234;28;20120;-78
2022/10/29 01:50:42;;;;;;;20.50;4.90;;;19.50;99.90;;;;;;5072500;28;20366;-79
2022/10/29 01:53:08;;;;;;;13.93;5.05;;;19.50;99.90;;;;;;5072328;28;20035;-79
2022/10/29 01:55:34;;;;;;;14.07;4.60;;;19.50;99.90;;;;;;5072433;28;20073;-78
2022/10/29 01:58:04;;;;;;;17.42;5.35;;;19.50;99.90;;;;;;5072077;28;20036;-78
2022/10/29 02:01:02;;;;;;;11.57;4.53;;;19.40;99.90;;;;;;5072015;28;20394;-78
2022/10/29 02:04:12;;;;;;;18.45;5.90;;;19.40;99.90;;;;;;5072028;28;20075;-77
2022/10/29 02:06:59;;;;;;;17.38;5.80;;;19.40;99.90;;;;;;5070913;28;20029;-77
2022/10/29 02:09:37;;;;;;;19.75;5.57;;;19.40;99.90;;;;;;5072165;28;20064;-78
2022/10/29 02:12:29;;;;;;;22.30;5.43;;;19.40;99.90;;;;;;5071849;28;20035;-79
2022/10/29 02:15:09;;;;;;;22.83;5.35;;;19.30;99.90;;;;;;5072034;28;20411;-79
2022/10/29 02:17:35;;;;;;;13.20;5.07;;;19.40;99.90;;;;;;5072368;28;20020;-78
2022/10/29 02:20:05;;;;;;;19.08;5.43;;;19.30;99.90;;;;;;5071829;28;20116;-78
2022/10/29 02:22:32;;;;;;;16.65;6.20;;;19.30;99.90;;;;;;5072160;28;20224;-78
2022/10/29 02:24:57;;;;;;;16.25;6.05;;;19.30;99.90;;;;;;5072464;28;20032;-79
2022/10/29 02:27:23;;;;;;;15.50;5.57;;;19.30;99.90;;;;;;5072229;28;20093;-77
2022/10/29 02:29:49;;;;;;;22.50;5.03;;;19.30;99.90;;;;;;5070959;28;20112;-77
2022/10/29 02:32:14;;;;;;;23.27;6.15;;;19.30;99.90;;;;;;5072404;28;20105;-77
2022/10/29 02:34:40;;;;;;;21.33;5.75;;;19.30;99.90;;;;;;5071942;28;20029;-77
2022/10/29 02:37:06;;;;;;;17.90;6.30;;;19.30;99.90;;;;;;5071837;28;20046;-77
2022/10/29 02:39:31;;;;;;;18.73;5.57;;;19.30;99.90;;;;;;5070430;28;20107;-78
2022/10/29 02:41:57;;;;;;;15.55;5.38;;;19.30;99.90;;;;;;5070295;28;20116;-77
2022/10/29 02:44:23;;;;;;;16.65;5.30;;;19.30;99.90;;;;;;5072049;28;20355;-78
2022/10/29 02:46:48;;;;;;;14.40;5.10;;;19.30;99.90;;;;;;5070402;28;20090;-78
2022/10/29 02:49:15;;;;;;;21.08;5.32;;;19.20;99.90;;;;;;5071082;28;20040;-77
2022/10/29 02:51:40;;;;;;;18.85;4.85;;;19.10;99.90;;;;;;5071207;28;20037;-78
2022/10/29 02:54:06;;;;;;;16.30;4.55;;;19.10;99.90;;;;;;5069673;28;20123;-79
2022/10/29 02:56:32;;;;;;;17.90;5.00;;;19.00;99.90;;;;;;5071629;28;20374;-78
2022/10/29 02:58:57;;;;;;;20.67;5.00;;;19.00;99.90;;;;;;5071185;28;20035;-77
2022/10/29 03:01:23;;;;;;;14.05;4.90;;;18.90;99.90;;;;;;5070911;28;20039;-77
2022/10/29 03:03:49;;;;;;;21.27;5.50;;;18.90;99.90;;;;;;5071042;28;20494;-77
2022/10/29 03:06:16;;;;;;;17.90;5.53;;;18.80;99.90;;;;;;5070954;28;20043;-78
2022/10/29 03:08:42;;;;;;;16.17;5.07;;;18.70;99.90;;;;;;5071477;28;20054;-78
2022/10/29 03:11:09;;;;;;;18.38;6.13;;;18.70;99.90;;;;;;5069720;28;20029;-80
2022/10/29 03:13:34;;;;;;;14.82;5.28;;;18.70;99.90;;;;;;5070657;28;20052;-80
2022/10/29 03:16:00;;;;;;;15.10;5.40;;;18.60;99.90;;;;;;5070997;28;20032;-80
2022/10/29 03:18:26;;;;;;;13.00;4.90;;;18.60;99.90;;;;;;5070992;28;20094;-78
2022/10/29 03:20:51;;;;;;;16.42;5.35;;;18.50;99.90;;;;;;5070993;28;20025;-78
2022/10/29 03:23:17;;;;;;;14.73;5.63;;;18.50;99.90;;;;;;5070086;28;20403;-79
2022/10/29 03:25:43;;;;;;;19.30;5.25;;;18.40;99.90;;;;;;5070815;28;20033;-79
2022/10/29 03:28:09;;;;;;;24.17;5.72;;;18.40;99.90;;;;;;5071009;28;20076;-79
2022/10/29 03:30:34;;;;;;;18.10;6.47;;;18.40;99.90;;;;;;5069541;28;20041;-79
2022/10/29 03:33:00;;;;;;;22.10;5.35;;;18.40;99.90;;;;;;5069574;28;20024;-79
2022/10/29 03:35:26;;;;;;;18.20;5.30;;;18.30;99.90;;;;;;5070978;28;20052;-78
2022/10/29 03:37:52;;;;;;;15.65;5.55;;;18.20;99.90;;;;;;5070685;28;20031;-79
2022/10/29 03:40:19;;;;;;;16.42;5.53;;;18.20;99.90;;;;;;5070439;28;20104;-78
2022/10/29 03:42:45;;;;;;;14.95;4.75;;;18.10;99.90;;;;;;5070496;28;20106;-79
2022/10/29 03:45:11;;;;;;;21.27;7.13;;;18.00;99.90;;;;;;5070381;28;20181;-79
2022/10/29 03:47:36;;;;;;;23.45;5.05;;;18.00;99.90;;;;;;5071106;28;20028;-78
2022/10/29 03:50:03;;;;;;;16.58;5.40;;;18.00;99.90;;;;;;5070438;28;20375;-78
2022/10/29 03:52:29;;;;;;;16.35;6.07;;;18.00;99.90;;;;;;5070229;28;20044;-77
2022/10/29 03:54:54;;;;;;;17.98;6.18;;;17.90;99.90;;;;;;5070359;28;20048;-77
2022/10/29 03:57:20;;;;;;;25.45;7.18;;;17.90;99.90;;;;;;5069181;28;20043;-77
2022/10/29 03:59:47;;;;;;;18.00;5.43;;;18.00;99.90;;;;;;5069463;28;20028;-77
2022/10/29 04:02:12;;;;;;;21.40;7.63;;;18.00;99.90;;;;;;5070987;28;20358;-77
2022/10/29 04:04:38;;;;;;;15.55;6.55;;;18.00;99.90;;;;;;5070878;28;20025;-78
2022/10/29 04:07:04;;;;;;;19.05;5.93;;;18.00;99.90;;;;;;5074426;28;20032;-77
2022/10/29 04:09:30;;;;;;;11.77;5.50;;;18.00;99.90;;;;;;5073070;28;20021;-78
2022/10/29 04:11:55;;;;;;;14.27;5.25;;;17.90;99.90;;;;;;5073140;28;20027;-77
2022/10/29 04:14:21;;;;;;;20.30;6.45;;;17.90;99.90;;;;;;5074595;28;20051;-78
2022/10/29 04:16:47;;;;;;;25.58;6.00;;;17.90;99.90;;;;;;5073305;28;20485;-77
2022/10/29 04:19:13;;;;;;;21.40;5.82;;;17.90;99.90;;;;;;5074236;28;20029;-77
2022/10/29 04:21:38;;;;;;;25.90;7.80;;;17.90;99.90;;;;;;5072891;28;20387;-78
2022/10/29 04:24:04;;;;;;;21.33;6.45;;;17.90;99.90;;;;;;5074004;28;20094;-77
2022/10/29 04:26:30;;;;;;;15.95;6.28;;;17.90;99.90;;;;;;5074394;28;20056;-78
2022/10/29 04:28:56;;;;;;;20.42;6.38;;;17.80;99.90;;;;;;5072810;28;20166;-78
2022/10/29 04:31:21;;;;;;;20.77;6.93;;;17.80;99.90;;;;;;5072740;28;20060;-77
2022/10/29 04:33:47;;;;;;;20.00;6.38;;;17.70;99.90;;;;;;5073680;28;20090;-79
2022/10/29 04:36:13;;;;;;;20.77;6.13;;;17.70;99.90;;;;;;5074051;28;20090;-78
2022/10/29 04:38:39;;;;;;;21.08;6.78;;;17.70;99.90;;;;;;5074266;28;20473;-78
2022/10/29 04:41:05;;;;;;;16.33;6.60;;;17.60;99.90;;;;;;5073850;28;20363;-79
2022/10/29 04:43:30;;;;;;;20.05;6.90;;;17.60;99.90;;;;;;5073810;28;20043;-77
2022/10/29 04:45:58;;;;;;;12.50;5.75;;;17.60;99.90;;;;;;5073755;28;20461;-79
2022/10/29 04:48:25;;;;;;;19.75;6.80;;;17.60;99.90;;;;;;5072895;28;20119;-78
2022/10/29 04:50:51;;;;;;;19.17;6.40;;;17.60;99.90;;;;;;5074005;28;20025;-78
2022/10/29 04:53:17;;;;;;;14.52;5.93;;;17.50;99.90;;;;;;5073789;28;20017;-78
2022/10/29 04:55:43;;;;;;;20.02;6.95;;;17.50;99.90;;;;;;5072308;28;20029;-77
2022/10/29 04:58:14;;;;;;;28.23;5.95;;;17.50;99.90;;;;;;5073412;28;20099;-78
2022/10/29 05:00:40;;;;;;;19.15;6.93;;;17.50;99.90;;;;;;5073656;28;20512;-78
2022/10/29 05:03:06;;;;;;;18.90;6.38;;;17.50;99.90;;;;;;5073296;28;20132;-79
2022/10/29 05:05:32;;;;;;;24.05;6.10;;;17.50;99.90;;;;;;5073878;28;20450;-79
2022/10/29 05:08:02;;;;;;;15.93;6.88;;;17.50;99.90;;;;;;5073512;28;20064;-79
2022/10/29 05:10:30;;;;;;;18.90;7.13;;;17.50;99.90;;;;;;5072224;28;20049;-80
2022/10/29 05:13:00;;;;;;;26.63;7.70;;;17.40;99.90;;;;;;5072933;28;20116;-78
2022/10/29 05:15:27;;;;;;;21.60;6.55;;;17.40;99.90;;;;;;5072773;28;20031;-79
2022/10/29 05:17:54;;;;;;;17.90;6.30;;;17.40;99.90;;;;;;5072180;28;20470;-79
2022/10/29 05:20:20;;;;;;;16.70;6.07;;;17.30;99.90;;;;;;5073509;28;20082;-79
2022/10/29 05:22:45;;;;;;;15.15;5.60;;;17.30;99.90;;;;;;5073088;28;20028;-79
2022/10/29 05:25:11;;;;;;;18.35;6.90;;;17.30;99.90;;;;;;5073061;28;20044;-77
2022/10/29 05:27:37;;;;;;;19.08;6.18;;;17.30;99.90;;;;;;5072874;28;20032;-78
2022/10/29 05:30:03;;;;;;;18.88;6.55;;;17.20;99.90;;;;;;5073167;28;20024;-77
2022/10/29 05:32:29;;;;;;;17.90;6.18;;;17.20;99.90;;;;;;5073909;28;20061;-78
2022/10/29 05:34:55;;;;;;;22.92;9.32;;;17.30;99.90;;;;;;5072815;28;20045;-78
2022/10/29 05:37:24;;;;;;;20.23;8.43;;;17.20;99.90;;;;;;5072843;28;20035;-78
2022/10/29 05:39:50;;;;;;;21.38;9.07;;;17.30;99.90;;;;;;5072726;28;20056;-77
2022/10/29 05:42:16;;;;;;;17.30;7.65;;;17.30;99.90;;;;;;5072474;28;20109;-77
2022/10/29 05:44:41;;;;;;;16.30;7.78;;;17.30;99.90;;;;;;5072941;28;20490;-76
2022/10/29 05:47:07;;;;;;;20.17;7.75;;;17.20;99.90;;;;;;5072568;28;20024;-77
2022/10/29 05:49:33;;;;;;;16.13;7.07;;;17.30;99.90;;;;;;5072142;28;20035;-77
2022/10/29 05:51:59;;;;;;;16.50;7.00;;;17.30;99.90;;;;;;5072163;28;20366;-77
2022/10/29 05:54:24;;;;;;;26.15;8.65;;;17.30;99.90;;;;;;5071065;28;20067;-77
2022/10/29 05:56:50;;;;;;;22.00;7.88;;;17.30;99.90;;;;;;5072107;28;20028;-78
2022/10/29 05:59:16;;;;;;;19.20;6.90;;;17.20;99.90;;;;;;5072568;28;20040;-78
2022/10/29 06:01:41;;;;;;;20.17;7.00;;;17.30;99.90;;;;;;5072075;28;20024;-78
2022/10/29 06:04:07;;;;;;;20.65;6.68;;;17.30;99.90;;;;;;5072041;28;20056;-78
2022/10/29 06:06:32;;;;;;;17.00;7.18;;;17.30;99.90;;;;;;5071078;28;20182;-78
2022/10/29 06:08:58;;;;;;;29.58;10.63;;;17.30;99.90;;;;;;5071696;28;20028;-78
2022/10/29 06:11:24;;;;;;;21.05;9.05;;;17.30;99.90;;;;;;5071060;28;20025;-76
2022/10/29 06:13:54;;;;;;;22.08;8.65;;;17.40;99.90;;;;;;5070682;28;20395;-76
2022/10/29 06:16:20;;;;;;;17.02;8.15;;;17.40;99.90;;;;;;5071979;28;20044;-78
2022/10/29 06:18:46;;;;;;;17.17;7.35;;;17.40;99.90;;;;;;5071944;28;20044;-77
2022/10/29 06:21:12;;;;;;;23.88;8.90;;;17.40;99.90;;;;;;5072188;28;20029;-77
2022/10/29 06:23:37;;;;;;;16.30;7.43;;;17.40;99.90;;;;;;5072271;28;20119;-78
2022/10/29 06:26:03;;;;;;;22.10;7.60;;;17.40;99.90;;;;;;5071735;28;20029;-77
2022/10/29 06:28:29;;;;;;;17.13;6.97;;;17.40;99.90;;;;;;5069904;28;20039;-78
2022/10/29 06:30:55;;;;;;;21.48;8.32;;;17.40;99.90;;;;;;5071416;28;20154;-77
2022/10/29 06:33:21;;;;;;;24.45;7.63;;;17.50;99.90;;;;;;5071678;28;20116;-78
2022/10/29 06:35:47;;;;;;;17.38;7.30;;;17.50;99.90;;;;;;5071365;28;20058;-76
2022/10/29 06:38:13;;;;;;;21.45;7.60;;;17.50;99.90;;;;;;5071746;28;20505;-77
2022/10/29 06:40:40;;;;;;;30.77;11.18;;;17.50;99.90;;;;;;5071188;28;20098;-78
2022/10/29 06:43:09;;;;;;;29.23;10.57;;;17.50;99.90;;;;;;5071329;28;20482;-79
2022/10/29 06:45:34;;;;;;;29.50;8.65;;;17.60;99.90;;;;;;5071579;28;20043;-78
2022/10/29 06:48:01;;;;;;;21.65;8.35;;;17.60;99.90;;;;;;5071217;28;20028;-77
2022/10/29 06:50:27;;;;;;;20.88;7.80;;;17.60;99.90;;;;;;5071303;28;20020;-76
2022/10/29 06:53:01;;;;;;;23.67;7.10;;;17.70;99.90;;;;;;5071455;28;20029;-78
2022/10/29 06:55:27;;;;;;;27.65;8.07;;;17.70;99.90;;;;;;5070977;28;20025;-76
2022/10/29 06:58:04;;;;;;;16.52;6.93;;;17.70;99.90;;;;;;5069801;28;20105;-76
2022/10/29 07:00:30;;;;;;;28.35;8.13;;;17.60;99.90;;;;;;5071046;28;20086;-77
2022/10/29 07:02:56;;;;;;;24.23;7.68;;;17.60;99.90;;;;;;5070087;28;20090;-78
2022/10/29 07:05:23;;;;;;;26.05;7.47;;;17.60;99.90;;;;;;5068831;28;20506;-79
2022/10/29 07:07:53;;;;;;;17.85;8.00;;;17.60;99.90;;;;;;5070995;28;20036;-79
2022/10/29 07:10:18;;;;;;;23.10;8.02;;;17.60;99.90;;;;;;5071573;28;20478;-80
2022/10/29 07:12:44;;;;;;;23.42;8.20;;;17.60;99.90;;;;;;5070997;28;20043;-79
2022/10/29 07:15:11;;;;;;;23.45;7.28;;;17.70;99.90;;;;;;5070269;28;20047;-82
2022/10/29 07:17:36;;;;;;;33.97;7.40;;;17.70;99.90;;;;;;5071557;28;20040;-81
2022/10/29 07:20:03;;;;;;;18.20;6.72;;;17.70;99.90;;;;;;5070942;28;20028;-80
2022/10/29 07:22:29;;;;;;;21.85;7.03;;;17.70;99.90;;;;;;5071031;28;20036;-79
2022/10/29 07:24:55;;;;;;;31.83;10.95;;;17.70;99.90;;;;;;5071298;28;20051;-78
2022/10/29 07:27:20;;;;;;;16.27;7.40;;;17.70;99.90;;;;;;5070905;28;20032;-77
2022/10/29 07:29:46;;;;;;;19.83;7.20;;;17.70;99.90;;;;;;5069692;28;20482;-78
2022/10/29 07:32:12;;;;;;;26.58;8.05;;;17.80;99.90;;;;;;5071118;28;20054;-77
2022/10/29 07:34:37;;;;;;;16.27;7.55;;;17.80;99.90;;;;;;5070642;28;20458;-77
2022/10/29 07:37:03;;;;;;;22.45;7.65;;;17.80;99.90;;;;;;5070776;28;20025;-77
2022/10/29 07:39:28;;;;;;;17.17;6.75;;;17.80;99.90;;;;;;5070966;28;20366;-75
2022/10/29 07:41:54;;;;;;;15.95;6.60;;;17.80;99.90;;;;;;5070709;28;20157;-78
2022/10/29 07:44:20;;;;;;;24.02;6.93;;;17.90;99.90;;;;;;5070254;28;20405;-80
2022/10/29 07:46:45;;;;;;;25.52;7.45;;;17.90;99.90;;;;;;5070022;28;20033;-80
2022/10/29 07:49:11;;;;;;;28.92;6.82;;;17.90;99.90;;;;;;5068110;28;20094;-74
2022/10/29 07:51:37;;;;;;;19.13;6.47;;;18.00;99.90;;;;;;5050416;28;20412;-76
2022/10/29 07:54:02;;;;;;;18.50;7.03;;;18.00;99.90;;;;;;5050639;28;20351;-76
2022/10/29 07:56:28;;;;;;;20.75;7.53;;;18.00;99.90;;;;;;5051062;28;20049;-75
2022/10/29 07:58:54;;;;;;;19.85;7.03;;;18.10;99.90;;;;;;5049511;28;20033;-75
2022/10/29 08:01:19;;;;;;;25.40;7.30;;;18.10;99.90;;;;;;5050250;28;20056;-75
2022/10/29 08:03:45;;;;;;;23.58;7.30;;;18.20;99.90;;;;;;5050039;28;20428;-75
2022/10/29 08:06:11;;;;;;;18.05;7.65;;;18.20;99.90;;;;;;5050260;28;20313;-77
2022/10/29 08:08:37;;;;;;;20.67;7.40;;;18.20;99.90;;;;;;5050796;28;20301;-78
2022/10/29 08:11:04;;;;;;;19.98;7.32;;;18.30;99.90;;;;;;5065665;28;20029;-75
2022/10/29 08:13:30;;;;;;;18.38;8.13;;;18.30;99.90;;;;;;5049953;28;20095;-79
2022/10/29 08:15:55;;;;;;;18.00;7.65;;;18.40;99.90;;;;;;5050224;28;20044;-75
2022/10/29 08:18:21;;;;;;;21.60;7.43;;;18.50;99.90;;;;;;5050405;28;20060;-77
2022/10/29 08:20:47;;;;;;;20.35;7.65;;;18.60;99.90;;;;;;5050386;28;20086;-78
2022/10/29 08:23:13;;;;;;;20.45;7.38;;;18.60;99.90;;;;;;5049397;28;20033;-78
2022/10/29 08:25:40;;;;;;;28.73;9.63;;;18.70;99.90;;;;;;5050033;28;20171;-78
2022/10/29 08:28:16;;;;;;;23.98;8.20;;;18.80;99.90;;;;;;5049685;28;20033;-77
2022/10/29 08:30:44;;;;;;;22.85;7.25;;;18.80;99.90;;;;;;5049845;28;20482;-77
2022/10/29 08:33:10;;;;;;;27.75;9.52;;;18.90;99.90;;;;;;5050360;28;20029;-78
2022/10/29 08:35:36;;;;;;;28.77;9.70;;;18.90;99.90;;;;;;5050456;28;20556;-78
2022/10/29 08:38:02;;;;;;;22.75;8.02;;;19.00;99.90;;;;;;5050774;28;20387;-78
2022/10/29 08:40:58;;;;;;;29.08;9.43;;;19.00;99.90;;;;;;5050012;28;20379;-76
2022/10/29 08:43:33;;;;;;;22.58;7.47;;;19.10;99.90;;;;;;5050104;28;20029;-78
2022/10/29 08:45:59;;;;;;;23.70;7.22;;;19.10;99.90;;;;;;5050152;28;20045;-76
2022/10/29 08:48:47;;;;;;;28.17;8.10;;;19.20;99.90;;;;;;5065326;28;20044;-78
2022/10/29 08:51:19;;;;;;;;;;;19.20;99.90;;;;;;5052110;28;20040;-76
2022/10/29 08:53:49;;;;;;;16.63;6.97;;;19.30;99.90;;;;;;5069521;28;20283;-75
2022/10/29 08:56:36;;;;;;;35.55;9.32;;;19.40;99.90;;;;;;5053777;28;20239;-76
2022/10/29 08:59:12;;;;;;;18.45;8.13;;;19.40;99.90;;;;;;5053689;28;20040;-78
2022/10/29 09:01:38;;;;;;;29.30;7.90;;;19.50;99.90;;;;;;5053462;28;20036;-76
2022/10/29 09:04:25;;;;;;;18.80;7.15;;;19.60;99.90;;;;;;5053427;28;20025;-80
2022/10/29 09:07:03;;;;;;;21.73;7.57;;;19.70;99.90;;;;;;5069094;28;20033;-76
2022/10/29 09:09:33;;;;;;;20.45;7.70;;;19.80;99.90;;;;;;5068971;28;20039;-77
2022/10/29 09:12:06;;;;;;;21.65;7.35;;;19.90;99.90;;;;;;5052996;28;20036;-77
2022/10/29 09:15:02;;;;;;;20.05;6.85;;;20.00;99.90;;;;;;5053365;28;20116;-78
2022/10/29 09:17:30;;;;;;;19.70;7.05;;;20.10;99.90;;;;;;5053308;28;20116;-77
2022/10/29 09:20:22;;;;;;;12.60;6.53;;;20.20;99.90;;;;;;5053082;28;20021;-74
2022/10/29 09:23:29;;;;;;;20.10;7.68;;;20.30;99.90;;;;;;5068461;28;20025;-76
2022/10/29 09:26:19;;;;;;;30.35;7.28;;;20.40;99.90;;;;;;5068618;28;20116;-78
2022/10/29 09:28:57;;;;;;;21.15;7.20;;;20.50;99.90;;;;;;5052650;28;20048;-77
2022/10/29 09:31:33;;;;;;;16.77;7.00;;;20.60;99.90;;;;;;5068037;28;20379;-71
2022/10/29 09:34:08;;;;;;;19.05;6.45;;;20.70;99.90;;;;;;5052584;28;20063;-74
2022/10/29 09:36:33;;;;;;;23.23;6.38;;;20.70;99.90;;;;;;5052751;28;20074;-74
2022/10/29 09:39:08;;;;;;;18.67;6.75;;;20.80;99.90;;;;;;5052670;28;20029;-75
2022/10/29 09:41:34;;;;;;;26.65;7.28;;;20.90;99.90;;;;;;5068850;28;20048;-75
2022/10/29 09:44:09;;;;;;;23.45;6.35;;;21.00;99.80;;;;;;5068114;28;20064;-76
2022/10/29 09:47:02;;;;;;;23.35;6.93;;;21.00;99.70;;;;;;5052459;28;20033;-76
2022/10/29 09:49:47;;;;;;;21.60;6.18;;;21.30;99.50;;;;;;5044198;28;20040;-74
2022/10/29 09:52:18;;;;;;;29.35;8.45;;;21.40;99.00;;;;;;5052323;28;20052;-78
2022/10/29 09:54:44;;;;;;;19.88;7.93;;;21.40;99.00;;;;;;5052566;28;20060;-77
2022/10/29 09:57:22;;;;;;;26.02;10.13;;;21.30;98.80;;;;;;5052396;28;20068;-77
2022/10/29 10:00:00;;;;;;;18.30;6.03;;;21.30;99.00;;;;;;5052707;28;20078;-77
2022/10/29 10:02:29;;;;;;;23.73;6.75;;;21.30;98.80;;;;;;5051791;28;20041;-79
2022/10/29 10:05:04;;;;;;;24.27;6.32;;;21.30;98.70;;;;;;5052516;28;20426;-76
2022/10/29 10:07:30;;;;;;;15.25;5.32;;;21.20;98.70;;;;;;5068468;28;20295;-75
2022/10/29 10:10:00;;;;;;;18.95;5.65;;;21.10;98.70;;;;;;5051573;28;20032;-75
2022/10/29 10:12:27;;;;;;;14.20;5.25;;;21.10;98.80;;;;;;5068014;28;20045;-81
2022/10/29 10:15:14;;;;;;;16.13;5.80;;;21.10;98.80;;;;;;5052264;28;20146;-76
2022/10/29 10:17:54;;;;;;;24.63;5.50;;;21.00;98.80;;;;;;5053263;28;20088;-84
2022/10/29 10:20:37;;;;;;;19.88;4.88;;;21.00;98.90;;;;;;5053302;28;20041;-80
2022/10/29 10:23:21;;;;;;;18.80;5.68;;;20.90;98.90;;;;;;5052398;28;20025;-79
2022/10/29 10:25:48;;;;;;;15.57;5.55;;;20.90;98.90;;;;;;5067738;28;20029;-79
2022/10/29 10:28:33;;;;;;;15.57;5.85;;;20.90;99.00;;;;;;5052259;28;20355;-80
2022/10/29 10:31:05;;;;;;;17.48;4.68;;;21.00;99.10;;;;;;5067502;28;20047;-79
2022/10/29 10:33:33;;;;;;;18.83;5.95;;;21.00;99.10;;;;;;5052081;28;20471;-79
2022/10/29 10:36:05;;;;;;;17.42;5.53;;;21.00;98.90;;;;;;5052518;28;20021;-79
2022/10/29 10:38:50;;;;;;;19.80;5.97;;;20.90;98.60;;;;;;5068015;28;20017;-77
2022/10/29 10:41:24;;;;;;;18.85;5.63;;;20.80;98.60;;;;;;5067695;28;20082;-76
2022/10/29 10:43:50;;;;;;;18.98;6.25;;;20.80;98.70;;;;;;5051762;28;20486;-79
2022/10/29 10:46:23;;;;;;;21.60;5.93;;;20.80;98.80;;;;;;5067378;28;20434;-76
2022/10/29 10:49:03;;;;;;;16.15;5.75;;;20.80;98.80;;;;;;5051846;28;20466;-76
2022/10/29 10:51:35;;;;;;;17.42;5.65;;;20.90;99.00;;;;;;5051311;28;20037;-77
2022/10/29 10:54:09;;;;;;;20.08;6.32;;;21.30;99.10;;;;;;5066928;28;20025;-76
2022/10/29 10:56:58;;;;;;;15.68;4.72;;;21.80;99.20;;;;;;5051732;28;20454;-77
2022/10/29 10:59:39;;;;;;;24.67;5.75;;;22.40;98.30;;;;;;5051392;28;20071;-75
2022/10/29 11:02:21;;;;;;;17.20;6.00;;;22.50;97.60;;;;;;5051372;28;20072;-76
2022/10/29 11:04:53;;;;;;;19.70;5.82;;;22.70;97.30;;;;;;5051473;28;20055;-76
2022/10/29 11:07:21;;;;;;;15.60;5.18;;;23.00;97.00;;;;;;5051023;28;20060;-80
2022/10/29 11:09:49;;;;;;;17.10;5.67;;;23.10;96.50;;;;;;5050897;28;20051;-79
2022/10/29 11:12:30;;;;;;;26.17;5.55;;;23.30;96.40;;;;;;5051182;28;20037;-81
2022/10/29 11:15:05;;;;;;;16.85;4.88;;;23.40;96.40;;;;;;5050871;28;20032;-77
2022/10/29 11:17:53;;;;;;;21.20;6.00;;;23.40;96.20;;;;;;5067047;28;20031;-81
2022/10/29 11:20:24;;;;;;;20.75;5.22;;;23.30;95.80;;;;;;5050039;28;20416;-83
2022/10/29 11:22:58;;;;;;;16.23;5.50;;;23.40;96.10;;;;;;5066859;28;20033;-82
2022/10/29 11:25:36;;;;;;;20.65;5.97;;;23.20;96.00;;;;;;5051324;28;20033;-81
2022/10/29 11:28:04;;;;;;;;;;;23.20;95.90;;;;;;5051847;28;20029;-79
2022/10/29 11:30:39;;;;;;;18.73;5.75;;;22.90;95.60;;;;;;5050822;28;19920;-78
2022/10/29 11:33:25;;;;;;;21.17;5.55;;;22.90;96.10;;;;;;5051062;28;20044;-81
2022/10/29 11:35:53;;;;;;;15.25;4.63;;;22.90;96.10;;;;;;5066692;28;20120;-79
2022/10/29 11:38:32;;;;;;;15.98;5.57;;;22.80;96.00;;;;;;5051479;28;20439;-81
2022/10/29 11:41:18;;;;;;;18.80;5.20;;;22.80;96.60;;;;;;5050938;28;20410;-83
2022/10/29 11:43:46;;;;;;;18.10;5.47;;;22.60;96.20;;;;;;5050904;28;20037;-79
2022/10/29 11:46:16;;;;;;;;;;;22.60;96.20;;;;;;5051262;28;20037;-81
2022/10/29 11:48:48;;;;;;;17.95;5.18;;;22.50;96.30;;;;;;5050927;28;19986;-79
2022/10/29 11:51:41;;;;;;;14.35;4.75;;;22.30;96.30;;;;;;5066352;28;20147;-81
2022/10/29 11:54:44;;;;;;;16.02;4.55;;;22.30;96.50;;;;;;5066945;28;20044;-85
2022/10/29 11:57:17;;;;;;;18.92;5.90;;;22.50;96.50;;;;;;5050970;28;20414;-83
2022/10/29 12:00:09;;;;;;;16.77;4.93;;;22.30;96.30;;;;;;5052727;28;20021;-80
2022/10/29 12:02:56;;;;;;;21.42;6.13;;;22.30;96.50;;;;;;5051022;28;20029;-76
2022/10/29 12:05:41;;;;;;;14.55;5.28;;;22.30;96.50;;;;;;5051100;28;20279;-79
2022/10/29 12:08:19;;;;;;;15.70;5.55;;;22.40;96.60;;;;;;5050589;28;20053;-79
2022/10/29 12:10:52;;;;;;;16.33;4.65;;;22.40;96.50;;;;;;5065790;28;20040;-79
2022/10/29 12:13:27;;;;;;;27.42;5.35;;;22.50;96.30;;;;;;5050631;28;20121;-78
2022/10/29 12:16:02;;;;;;;28.75;5.45;;;22.60;96.60;;;;;;5050162;28;20120;-78
2022/10/29 12:19:00;;;;;;;20.83;5.85;;;22.50;96.30;;;;;;5050116;28;20040;-76
2022/10/29 12:21:42;;;;;;;15.90;5.15;;;22.60;96.50;;;;;;5044567;28;20048;-78
2022/10/29 12:24:24;;;;;;;22.58;4.78;;;22.60;96.40;;;;;;5050401;28;20025;-81
2022/10/29 12:26:50;;;;;;;13.65;4.45;;;22.70;96.50;;;;;;5053153;28;20037;-80
2022/10/29 12:29:21;;;;;;;12.57;5.20;;;22.80;96.20;;;;;;5054910;28;20021;-80
2022/10/29 12:32:02;;;;;;;22.02;5.43;;;22.80;96.30;;;;;;5069720;28;20040;-80
2022/10/29 12:35:01;;;;;;;11.55;4.50;;;22.80;96.30;;;;;;5054224;28;20029;-80
2022/10/29 12:37:39;;;;;;;20.13;5.60;;;22.80;96.30;;;;;;5053917;28;20029;-84
2022/10/29 12:40:29;;;;;;;18.33;4.70;;;22.80;96.20;;;;;;5054172;28;20056;-77
2022/10/29 12:42:59;;;;;;;17.13;4.78;;;22.70;96.00;;;;;;5053800;28;20027;-82
2022/10/29 12:46:12;;;;;;;16.17;4.75;;;22.70;96.40;;;;;;5054036;28;20459;-80
2022/10/29 12:48:56;;;;;;;23.20;5.75;;;22.70;96.30;;;;;;5048439;28;20029;-81
2022/10/29 12:51:48;;;;;;;19.33;4.40;;;22.70;96.20;;;;;;5069618;28;20037;-81
2022/10/29 12:54:55;;;;;;;17.95;4.05;;;22.80;96.50;;;;;;5069332;28;20025;-81
2022/10/29 12:57:27;;;;;;;12.13;3.95;;;22.70;96.50;;;;;;5008957;28;20037;-80
2022/10/29 12:59:53;;;;;;;19.95;4.50;;;22.70;96.40;;;;;;5069057;28;20400;-81